CYSJ

Saint John Airport

Saint John, , Canada
METAR CYSJ 202300Z 00000KT 15SM FEW040 FEW120 BKN200 20/16 A3017 RMK SC1AC1CI4 SC TR SLP218 DENSITY ALT 700FT
Observed Flight Rules
Aug-20 @ 23:00 UTC (an hour ago) Visual Flight Rules
Visibility Clouds
15 miles
  • Few at 4,000' AGL
  • Few at 12,000' AGL
  • Broken at 20,000' AGL
Temperatures Readings
Current 20°C / 68°F
Dewpoint 16°C / 61°F
Humidity 78%
Altimeter 30.17" Hg
Pressure 1021.8 hPa
Elevation 109
METAR CYSJ 202300Z 00000KT 15SM FEW040 FEW120 BKN200 20/16 A3017 RMK SC1AC1CI4 SC TR SLP218 DENSITY ALT 700FT
Observed Flight Rules
Aug-20 @ 23:00 UTC
(an hour ago)
VFR
Clouds
  • Few at 4,000' AGL
  • Few at 12,000' AGL
  • Broken at 20,000' AGL
Temperature Dewpoint
20°C / 68°F 16°C / 61°F
Humidity Altimeter Pressure
78% 30.17" Hg 1021.8 hPa